createdAt,value
2022-12-10T00:03:57.777Z,8.89
2022-12-10T00:14:06.335Z,8.7
2022-12-10T00:24:14.406Z,8.9
2022-12-10T00:34:22.808Z,8.7
2022-12-10T00:44:31.121Z,6.2
2022-12-10T00:54:39.225Z,5.3
2022-12-10T01:04:47.286Z,6.3
2022-12-10T01:15:06.857Z,6.93
2022-12-10T01:25:13.028Z,7.18
2022-12-10T01:35:17.402Z,7.24
2022-12-10T01:45:23.708Z,6.78
2022-12-10T02:05:24.032Z,5.01
2022-12-10T02:15:32.278Z,5.81
2022-12-10T02:25:40.377Z,7.4
2022-12-10T02:35:48.393Z,7.59
2022-12-10T02:45:56.484Z,7.78
2022-12-10T02:56:04.615Z,8.63
2022-12-10T03:06:12.968Z,9.53
2022-12-10T03:16:21.617Z,9.14
2022-12-10T03:26:29.808Z,8.91
2022-12-10T03:36:38.208Z,8.87
2022-12-10T03:46:49.253Z,8.73
2022-12-10T03:56:47.348Z,8.01
2022-12-10T04:06:55.339Z,10.16
2022-12-10T04:17:03.307Z,10.25
2022-12-10T04:27:28.069Z,11.25
2022-12-10T04:37:16.377Z,11.74
2022-12-10T04:47:24.445Z,14.49
2022-12-10T04:57:32.657Z,11.41
2022-12-10T05:07:41.035Z,9.79
2022-12-10T05:17:49.361Z,10.64
2022-12-10T05:27:57.427Z,9.34
2022-12-10T05:38:05.442Z,9.36
2022-12-10T05:48:14.617Z,9.46
2022-12-10T05:58:22.694Z,10.84
2022-12-10T06:08:31.411Z,11.88
2022-12-10T06:18:40.941Z,11.51
2022-12-10T06:28:52.036Z,11.7
2022-12-10T06:48:52.244Z,8.75
2022-12-10T06:59:02.746Z,9.37
2022-12-10T07:09:00.696Z,9.17
2022-12-10T07:19:08.893Z,9.08
2022-12-10T07:29:16.897Z,10.3
2022-12-10T07:39:24.948Z,9.66
2022-12-10T07:49:32.810Z,9.96
2022-12-10T07:59:40.914Z,10.25
2022-12-10T08:09:49.507Z,9.45
2022-12-10T08:19:58.780Z,9.11
2022-12-10T08:30:07.306Z,10.26
2022-12-10T08:40:15.120Z,10.4
2022-12-10T08:50:23.729Z,9.03
2022-12-10T09:00:33.220Z,10.58
2022-12-10T09:10:43.171Z,10.93
2022-12-10T09:20:54.450Z,7.29
2022-12-10T09:30:54.409Z,4.47
2022-12-10T09:41:03.546Z,3.45
2022-12-10T09:51:13.070Z,2.26
2022-12-10T10:01:22.478Z,1.78
2022-12-10T10:11:31.014Z,1.6
2022-12-10T10:21:39.837Z,1.52
2022-12-10T10:31:53.751Z,1.64
2022-12-10T10:41:58.281Z,1.65
2022-12-10T10:51:54.984Z,1.63
2022-12-10T11:02:03.853Z,1.71
2022-12-10T11:12:15.874Z,2.01
2022-12-10T11:22:16.297Z,1.88
2022-12-10T11:32:19.326Z,1.67
2022-12-10T11:42:20.129Z,1.57
2022-12-10T11:52:18.529Z,1.66
2022-12-10T12:02:27.703Z,1.69
2022-12-10T12:12:40.354Z,2.69
2022-12-10T12:22:41.593Z,1.8
2022-12-10T12:32:42.043Z,1.88
2022-12-10T12:42:44.807Z,1.78
2022-12-10T12:52:43.573Z,1.84
2022-12-10T13:02:51.793Z,2.2
2022-12-10T13:13:02.467Z,2.18
2022-12-10T13:23:00.633Z,1.69
2022-12-10T13:33:09.145Z,1.89
2022-12-10T13:43:18.535Z,2.45
2022-12-10T13:53:27.854Z,3.33
2022-12-10T14:03:36.440Z,2.03
2022-12-10T14:13:45.835Z,1.68
2022-12-10T14:23:56.575Z,2.37
2022-12-10T14:34:03.233Z,1.69
2022-12-10T14:44:11.237Z,1.27
2022-12-10T14:54:19.342Z,1.54
2022-12-10T15:04:27.244Z,1.25
2022-12-10T15:14:36.031Z,1.41
2022-12-10T15:24:45.650Z,1.21
2022-12-10T15:34:57.847Z,1.35
2022-12-10T15:54:58.354Z,1.57
2022-12-10T16:05:07.191Z,1.21
2022-12-10T16:15:22.015Z,1.25
2022-12-10T16:25:23.244Z,1.03
2022-12-10T16:45:28.477Z,2.7
2022-12-10T17:05:28.751Z,1.86
2022-12-10T17:15:42.278Z,1.68
2022-12-10T17:25:41.281Z,2.74
2022-12-10T17:35:51.982Z,2
2022-12-10T17:45:54.155Z,2.92
2022-12-10T17:55:49.862Z,2.29
2022-12-10T18:06:00.070Z,6.03
2022-12-10T18:15:59.419Z,1.94
2022-12-10T18:26:14.722Z,3.75
2022-12-10T18:36:13.677Z,2.07
2022-12-10T18:46:23.621Z,3.29
2022-12-10T18:56:39.430Z,2.61
2022-12-10T19:06:39.469Z,2.14
2022-12-10T19:16:38.064Z,1.97
2022-12-10T19:26:46.486Z,1.55
2022-12-10T19:36:56.120Z,1.6
2022-12-10T19:47:07.575Z,2.43
2022-12-10T19:57:05.868Z,1.66
2022-12-10T20:07:14.125Z,2.21
2022-12-10T20:17:23.988Z,2.44
2022-12-10T20:27:33.439Z,3.71
2022-12-10T20:37:44.541Z,2.84
2022-12-10T20:47:41.386Z,2.74
2022-12-10T20:57:49.769Z,3.98
2022-12-10T21:07:58.194Z,3.97
2022-12-10T21:18:08.113Z,5.02
2022-12-10T21:28:16.621Z,6.09
2022-12-10T21:38:25.060Z,3.02
2022-12-10T21:48:35.591Z,3.41
2022-12-10T21:58:33.851Z,2.32
2022-12-10T22:08:42.981Z,2.4
2022-12-10T22:18:53.454Z,2.12
2022-12-10T22:28:51.638Z,4.3
2022-12-10T22:39:00.194Z,2.97
2022-12-10T22:49:09.319Z,2.43
2022-12-10T22:59:17.564Z,2.18
2022-12-10T23:09:27.713Z,4.47
2022-12-10T23:19:26.353Z,2.86
2022-12-10T23:29:34.431Z,2.69
2022-12-10T23:39:42.697Z,2.26
2022-12-10T23:49:50.853Z,1.78
